createdAt,value
2022-12-26T00:00:33.460Z,0.90
2022-12-26T00:02:59.919Z,1.10
2022-12-26T00:05:26.168Z,1.10
2022-12-26T00:07:52.311Z,1.30
2022-12-26T00:10:18.462Z,1.10
2022-12-26T00:12:44.582Z,1.08
2022-12-26T00:15:10.722Z,1.10
2022-12-26T00:17:36.851Z,1.27
2022-12-26T00:20:02.982Z,1.20
2022-12-26T00:22:29.129Z,1.25
2022-12-26T00:24:55.337Z,0.82
2022-12-26T00:27:21.531Z,1.05
2022-12-26T00:29:47.657Z,1.23
2022-12-26T00:32:13.847Z,1.30
2022-12-26T00:34:40.012Z,1.05
2022-12-26T00:37:06.193Z,1.15
2022-12-26T00:39:32.302Z,1.58
2022-12-26T00:41:58.450Z,1.20
2022-12-26T00:44:24.690Z,0.90
2022-12-26T00:46:50.932Z,1.00
2022-12-26T00:49:17.128Z,1.05
2022-12-26T00:51:43.277Z,0.80
2022-12-26T00:54:09.412Z,0.80
2022-12-26T00:56:35.606Z,0.95
2022-12-26T00:59:01.724Z,0.90
2022-12-26T01:01:27.898Z,0.93
2022-12-26T01:03:54.150Z,0.70
2022-12-26T01:06:20.285Z,0.70
2022-12-26T01:08:46.457Z,0.82
2022-12-26T01:11:12.572Z,0.93
2022-12-26T01:13:38.717Z,1.10
2022-12-26T01:16:04.936Z,0.75
2022-12-26T01:18:31.106Z,0.90
2022-12-26T01:20:57.226Z,1.10
2022-12-26T01:23:23.350Z,0.93
2022-12-26T01:26:14.843Z,0.80
2022-12-26T01:28:35.661Z,0.60
2022-12-26T01:31:01.897Z,0.70
2022-12-26T01:33:28.075Z,0.73
2022-12-26T01:35:54.206Z,0.70
2022-12-26T01:38:21.472Z,0.98
2022-12-26T01:40:47.583Z,0.90
2022-12-26T01:43:13.767Z,0.90
2022-12-26T01:45:39.927Z,0.68
2022-12-26T01:48:06.751Z,0.60
2022-12-26T01:50:32.938Z,0.65
2022-12-26T01:52:59.047Z,0.60
2022-12-26T01:55:25.197Z,0.60
2022-12-26T01:57:51.332Z,0.57
2022-12-26T02:00:17.468Z,0.80
2022-12-26T02:02:43.664Z,0.60
2022-12-26T02:05:09.828Z,0.40
2022-12-26T02:07:35.936Z,0.60
2022-12-26T02:10:02.204Z,0.43
2022-12-26T02:12:34.490Z,0.50
2022-12-26T02:15:02.969Z,0.60
2022-12-26T02:17:29.095Z,0.77
2022-12-26T02:19:55.246Z,0.50
2022-12-26T02:22:21.419Z,0.73
2022-12-26T02:24:47.712Z,0.65
2022-12-26T02:27:13.888Z,0.65
2022-12-26T02:29:40.011Z,0.40
2022-12-26T02:32:06.238Z,0.60
2022-12-26T02:34:32.406Z,0.60
2022-12-26T02:36:58.608Z,0.60
2022-12-26T02:39:42.506Z,0.60
2022-12-26T02:42:10.970Z,0.60
2022-12-26T02:44:37.145Z,0.60
2022-12-26T02:47:03.368Z,0.50
2022-12-26T02:49:29.502Z,0.93
2022-12-26T02:51:55.781Z,0.80
2022-12-26T02:54:21.914Z,0.70
2022-12-26T02:56:48.196Z,0.40
2022-12-26T02:59:14.403Z,0.50
2022-12-26T03:01:40.655Z,0.40
2022-12-26T03:04:06.938Z,0.80
2022-12-26T03:06:33.194Z,0.68
2022-12-26T03:08:59.362Z,0.52
2022-12-26T03:11:25.504Z,0.57
2022-12-26T03:13:51.882Z,0.70
2022-12-26T03:16:18.091Z,0.63
2022-12-26T03:18:58.684Z,0.63
2022-12-26T03:21:26.485Z,0.60
2022-12-26T03:23:52.923Z,0.70
2022-12-26T03:26:19.220Z,0.70
2022-12-26T03:28:45.383Z,0.70
2022-12-26T03:31:11.665Z,0.75
2022-12-26T03:33:38.023Z,0.77
2022-12-26T03:36:04.373Z,0.60
2022-12-26T03:38:30.537Z,0.65
2022-12-26T03:40:56.767Z,0.70
2022-12-26T03:43:22.956Z,0.73
2022-12-26T03:45:49.142Z,0.90
2022-12-26T03:48:15.411Z,0.70
2022-12-26T03:50:41.608Z,0.85
2022-12-26T03:53:07.918Z,0.70
2022-12-26T03:55:34.146Z,0.68
2022-12-26T03:58:00.295Z,0.43
2022-12-26T04:00:26.557Z,0.80
2022-12-26T04:02:52.724Z,0.80
2022-12-26T04:05:18.946Z,0.57
2022-12-26T04:07:56.268Z,0.80
2022-12-26T04:10:24.678Z,0.77
2022-12-26T04:12:50.830Z,0.57
2022-12-26T04:15:17.029Z,0.70
2022-12-26T04:17:43.322Z,0.80
2022-12-26T04:20:09.468Z,0.60
2022-12-26T04:22:35.726Z,0.63
2022-12-26T04:25:01.901Z,0.50
2022-12-26T04:27:28.102Z,0.60
2022-12-26T04:29:54.463Z,0.70
2022-12-26T04:32:20.642Z,0.70
2022-12-26T04:34:47.109Z,0.50
2022-12-26T04:37:13.352Z,0.70
2022-12-26T04:39:39.618Z,0.63
2022-12-26T04:42:05.871Z,0.80
2022-12-26T04:44:32.033Z,0.60
2022-12-26T04:46:58.423Z,0.50
2022-12-26T04:49:24.779Z,0.63
2022-12-26T04:51:50.969Z,0.70
2022-12-26T04:54:17.220Z,0.60
2022-12-26T04:56:43.444Z,0.63
2022-12-26T04:59:09.704Z,0.60
2022-12-26T05:01:35.938Z,0.73
2022-12-26T05:04:02.299Z,0.77
2022-12-26T05:06:28.545Z,0.68
2022-12-26T05:08:54.795Z,0.85
2022-12-26T05:11:20.963Z,0.50
2022-12-26T05:13:47.161Z,0.80
2022-12-26T05:16:13.578Z,0.70
2022-12-26T05:18:39.783Z,0.75
2022-12-26T05:21:05.932Z,0.70
2022-12-26T05:23:32.329Z,0.60
2022-12-26T05:25:58.459Z,0.85
2022-12-26T05:28:24.953Z,0.70
2022-12-26T05:30:51.265Z,0.50
2022-12-26T05:33:17.480Z,0.60
2022-12-26T05:35:43.739Z,0.50
2022-12-26T05:38:10.029Z,0.70
2022-12-26T05:40:36.245Z,0.75
2022-12-26T05:43:02.414Z,0.63
2022-12-26T05:45:28.813Z,0.68
2022-12-26T05:47:54.963Z,0.70
2022-12-26T05:50:21.117Z,0.55
2022-12-26T05:52:47.280Z,0.82
2022-12-26T05:55:13.468Z,0.70
2022-12-26T05:57:39.743Z,0.70
2022-12-26T06:00:05.987Z,0.68
2022-12-26T06:02:32.233Z,0.60
2022-12-26T06:04:58.588Z,0.63
2022-12-26T06:07:24.940Z,0.82
2022-12-26T06:09:51.134Z,0.63
2022-12-26T06:12:17.270Z,0.70
2022-12-26T06:14:43.643Z,0.85
2022-12-26T06:17:09.829Z,0.70
2022-12-26T06:19:40.062Z,0.98
2022-12-26T06:22:09.257Z,0.80
2022-12-26T06:24:35.619Z,0.80
2022-12-26T06:27:01.829Z,0.80
2022-12-26T06:29:28.089Z,0.75
2022-12-26T06:31:54.357Z,1.05
2022-12-26T06:34:20.645Z,0.70
2022-12-26T06:36:46.807Z,0.80
2022-12-26T06:39:12.943Z,0.60
2022-12-26T06:41:39.375Z,0.70
2022-12-26T06:44:05.606Z,0.90
2022-12-26T06:46:31.827Z,0.70
2022-12-26T06:48:58.055Z,0.57
2022-12-26T06:51:24.359Z,0.68
2022-12-26T06:53:50.696Z,0.80
2022-12-26T06:56:17.124Z,0.70
2022-12-26T06:58:43.356Z,0.70
2022-12-26T07:01:09.739Z,0.70
2022-12-26T07:03:36.038Z,0.80
2022-12-26T07:06:02.307Z,0.57
2022-12-26T07:08:28.447Z,0.70
2022-12-26T07:10:54.847Z,0.55
2022-12-26T07:13:20.978Z,0.65
2022-12-26T07:15:47.271Z,0.80
2022-12-26T07:18:13.547Z,0.60
2022-12-26T07:20:39.765Z,0.57
2022-12-26T07:23:05.917Z,0.70
2022-12-26T07:25:32.053Z,0.50
2022-12-26T07:27:58.385Z,0.60
2022-12-26T07:30:24.567Z,0.60
2022-12-26T07:32:50.868Z,0.50
2022-12-26T07:35:17.032Z,0.40
2022-12-26T07:37:43.177Z,0.50
2022-12-26T07:40:09.413Z,0.73
2022-12-26T07:42:35.763Z,0.65
2022-12-26T07:45:01.892Z,0.98
2022-12-26T07:47:28.112Z,0.80
2022-12-26T07:49:54.290Z,0.75
2022-12-26T07:52:20.511Z,0.60
2022-12-26T07:54:46.927Z,0.55
2022-12-26T07:57:46.680Z,0.52
2022-12-26T07:59:59.695Z,0.70
2022-12-26T08:02:26.071Z,1.05
2022-12-26T08:04:52.363Z,0.57
2022-12-26T08:07:18.528Z,0.90
2022-12-26T08:09:44.764Z,0.82
2022-12-26T08:12:10.964Z,0.70
2022-12-26T08:14:37.254Z,0.80
2022-12-26T08:17:03.468Z,1.08
2022-12-26T08:19:29.801Z,1.00
2022-12-26T08:21:55.923Z,0.98
2022-12-26T08:24:22.382Z,0.80
2022-12-26T08:26:48.597Z,0.90
2022-12-26T08:29:15.449Z,0.80
2022-12-26T08:31:42.103Z,0.70
2022-12-26T08:34:08.745Z,0.80
2022-12-26T08:36:35.566Z,0.88
2022-12-26T08:39:01.787Z,1.00
2022-12-26T08:41:27.894Z,0.85
2022-12-26T08:46:40.147Z,0.90
2022-12-26T08:49:06.317Z,1.00
2022-12-26T08:51:32.445Z,0.70
2022-12-26T08:53:58.611Z,0.88
2022-12-26T08:56:24.820Z,0.80
2022-12-26T08:58:50.970Z,0.80
2022-12-26T09:01:17.265Z,0.88
2022-12-26T09:03:43.559Z,0.98
2022-12-26T09:06:09.695Z,0.90
2022-12-26T09:08:35.843Z,0.88
2022-12-26T09:11:01.996Z,1.00
2022-12-26T09:13:28.209Z,1.00
2022-12-26T09:15:54.359Z,0.90
2022-12-26T09:18:20.514Z,1.00
2022-12-26T09:20:46.673Z,0.90
2022-12-26T09:23:12.797Z,0.80
2022-12-26T09:25:38.960Z,1.02
2022-12-26T09:28:05.134Z,0.80
2022-12-26T09:30:31.317Z,0.90
2022-12-26T09:32:57.503Z,0.80
2022-12-26T09:35:23.627Z,0.80
2022-12-26T09:37:49.761Z,0.80
2022-12-26T09:40:15.893Z,0.93
2022-12-26T09:42:42.038Z,1.00
2022-12-26T09:45:08.171Z,0.82
2022-12-26T09:47:34.300Z,0.90
2022-12-26T09:50:00.405Z,0.73
2022-12-26T09:52:26.992Z,0.68
2022-12-26T09:54:53.118Z,0.73
2022-12-26T09:57:19.311Z,0.70
2022-12-26T09:59:45.434Z,0.75
2022-12-26T10:02:11.666Z,0.70
2022-12-26T10:04:37.922Z,0.70
2022-12-26T10:07:04.090Z,0.75
2022-12-26T10:09:30.220Z,0.90
2022-12-26T10:11:56.377Z,0.88
2022-12-26T10:14:22.504Z,0.70
2022-12-26T10:16:48.651Z,0.82
2022-12-26T10:19:14.775Z,1.02
2022-12-26T10:21:40.934Z,0.73
2022-12-26T10:24:07.078Z,0.68
2022-12-26T10:26:33.238Z,1.00
2022-12-26T10:28:59.345Z,0.90
2022-12-26T10:31:25.499Z,0.90
2022-12-26T10:33:51.663Z,1.00
2022-12-26T10:36:17.821Z,0.80
2022-12-26T10:38:44.003Z,0.90
2022-12-26T10:41:10.125Z,1.00
2022-12-26T10:43:36.267Z,0.82
2022-12-26T10:46:02.484Z,0.80
2022-12-26T10:48:28.655Z,1.10
2022-12-26T10:50:54.987Z,0.65
2022-12-26T10:53:21.173Z,0.80
2022-12-26T10:55:47.318Z,0.80
2022-12-26T10:58:13.485Z,0.65
2022-12-26T11:00:39.627Z,0.80
2022-12-26T11:03:05.947Z,0.80
2022-12-26T11:05:57.401Z,0.60
2022-12-26T11:08:18.315Z,0.98
2022-12-26T11:10:44.448Z,0.60
2022-12-26T11:13:10.593Z,0.70
2022-12-26T11:15:37.938Z,0.52
2022-12-26T11:18:04.125Z,0.80
2022-12-26T11:20:30.245Z,0.90
2022-12-26T11:22:56.378Z,0.88
2022-12-26T11:25:22.659Z,0.65
2022-12-26T11:27:50.175Z,0.80
2022-12-26T11:30:16.371Z,0.75
2022-12-26T11:32:42.514Z,0.70
2022-12-26T11:35:08.647Z,0.70
2022-12-26T11:37:34.768Z,0.65
2022-12-26T11:40:00.936Z,0.90
2022-12-26T11:42:27.081Z,0.85
2022-12-26T11:44:53.253Z,0.95
2022-12-26T11:47:19.391Z,0.80
2022-12-26T11:49:45.535Z,0.70
2022-12-26T11:52:11.643Z,0.68
2022-12-26T11:54:37.866Z,0.80
2022-12-26T11:57:04.021Z,0.77
2022-12-26T11:59:30.153Z,0.80
2022-12-26T12:01:56.376Z,0.80
2022-12-26T12:04:22.683Z,0.70
2022-12-26T12:06:48.832Z,0.65
2022-12-26T12:09:14.950Z,1.00
2022-12-26T12:11:41.105Z,0.95
2022-12-26T12:14:07.570Z,1.02
2022-12-26T12:16:33.754Z,0.82
2022-12-26T12:18:59.937Z,0.80
2022-12-26T12:21:27.165Z,0.90
2022-12-26T12:23:53.275Z,1.27
2022-12-26T12:26:19.456Z,0.98
2022-12-26T12:28:45.577Z,1.10
2022-12-26T12:31:11.711Z,1.05
2022-12-26T12:33:37.973Z,0.93
2022-12-26T12:36:04.081Z,1.30
2022-12-26T12:38:30.227Z,1.25
2022-12-26T12:40:56.328Z,1.38
2022-12-26T12:43:22.867Z,1.50
2022-12-26T12:45:49.080Z,1.60
2022-12-26T12:48:15.238Z,1.90
2022-12-26T12:50:41.406Z,1.58
2022-12-26T12:53:07.546Z,1.88
2022-12-26T12:55:33.752Z,1.60
2022-12-26T12:57:59.889Z,1.73
2022-12-26T13:00:26.031Z,1.92
2022-12-26T13:02:52.294Z,1.70
2022-12-26T13:05:18.538Z,1.92
2022-12-26T13:07:47.337Z,1.83
2022-12-26T13:10:13.865Z,1.95
2022-12-26T13:12:39.985Z,2.25
2022-12-26T13:15:06.112Z,2.00
2022-12-26T13:17:32.255Z,2.05
2022-12-26T13:20:01.796Z,2.10
2022-12-26T13:22:28.548Z,1.88
2022-12-26T13:24:54.690Z,2.03
2022-12-26T13:27:20.805Z,1.90
2022-12-26T13:29:46.982Z,2.13
2022-12-26T13:32:13.104Z,2.30
2022-12-26T13:34:39.253Z,2.00
2022-12-26T13:37:05.373Z,2.25
2022-12-26T13:39:31.517Z,2.15
2022-12-26T13:41:57.658Z,1.92
2022-12-26T13:44:23.779Z,2.03
2022-12-26T13:46:49.945Z,1.85
2022-12-26T13:49:16.076Z,2.17
2022-12-26T13:51:42.217Z,1.80
2022-12-26T13:54:08.346Z,2.20
2022-12-26T13:56:34.470Z,2.10
2022-12-26T13:59:00.712Z,2.13
2022-12-26T14:01:26.926Z,2.20
2022-12-26T14:03:53.150Z,2.22
2022-12-26T14:06:19.318Z,2.00
2022-12-26T14:08:49.807Z,1.50
2022-12-26T14:11:19.207Z,2.03
2022-12-26T14:13:45.341Z,1.83
2022-12-26T14:16:11.456Z,1.70
2022-12-26T14:18:38.298Z,1.70
2022-12-26T14:21:04.406Z,1.90
2022-12-26T14:23:30.533Z,1.55
2022-12-26T14:25:56.651Z,1.90
2022-12-26T14:28:22.777Z,1.98
2022-12-26T14:30:48.928Z,1.90
2022-12-26T14:33:15.129Z,1.58
2022-12-26T14:35:41.230Z,2.20
2022-12-26T14:38:08.271Z,1.70
2022-12-26T14:40:34.685Z,1.80
2022-12-26T14:43:00.963Z,1.85
2022-12-26T14:45:27.509Z,1.92
2022-12-26T14:47:53.937Z,1.60
2022-12-26T14:50:20.229Z,1.70
2022-12-26T14:52:46.678Z,1.50
2022-12-26T14:55:13.382Z,1.85
2022-12-26T14:57:40.085Z,1.70
2022-12-26T15:00:06.370Z,1.65
2022-12-26T15:02:32.831Z,1.48
2022-12-26T15:05:00.051Z,2.00
2022-12-26T15:07:27.622Z,1.75
2022-12-26T15:09:54.172Z,1.83
2022-12-26T15:12:21.331Z,1.70
2022-12-26T15:14:48.073Z,1.92
2022-12-26T15:17:14.771Z,2.22
2022-12-26T15:19:41.172Z,1.42
2022-12-26T15:22:07.473Z,1.65
2022-12-26T15:25:16.373Z,1.70
2022-12-26T15:27:20.909Z,1.45
2022-12-26T15:29:47.252Z,1.40
2022-12-26T15:32:13.842Z,1.20
2022-12-26T15:34:40.495Z,1.25
2022-12-26T15:37:06.895Z,1.10
2022-12-26T15:39:33.468Z,1.30
2022-12-26T15:41:59.802Z,0.98
2022-12-26T15:44:26.944Z,1.00
2022-12-26T15:46:54.466Z,0.88
2022-12-26T15:49:21.004Z,0.88
2022-12-26T15:51:50.982Z,1.00
2022-12-26T15:54:21.971Z,0.63
2022-12-26T15:56:48.394Z,0.90
2022-12-26T15:59:14.622Z,0.50
2022-12-26T16:01:40.866Z,0.63
2022-12-26T16:04:08.336Z,0.52
2022-12-26T16:06:35.569Z,0.60
2022-12-26T16:09:02.798Z,0.50
2022-12-26T16:11:30.042Z,0.50
2022-12-26T16:13:57.847Z,0.40
2022-12-26T16:16:24.251Z,0.40
2022-12-26T16:18:51.203Z,0.57
2022-12-26T16:21:17.726Z,0.50
2022-12-26T16:23:44.202Z,0.60
2022-12-26T16:26:10.700Z,0.40
2022-12-26T16:28:37.135Z,0.40
2022-12-26T16:31:03.807Z,0.40
2022-12-26T16:33:30.389Z,0.30
2022-12-26T16:36:01.748Z,0.20
2022-12-26T16:38:28.811Z,0.40
2022-12-26T16:40:58.165Z,0.40
2022-12-26T16:43:25.379Z,0.38
2022-12-26T16:45:52.194Z,0.60
2022-12-26T16:48:18.573Z,0.40
2022-12-26T16:50:45.735Z,0.40
2022-12-26T16:53:12.000Z,0.50
2022-12-26T16:55:39.112Z,0.40
2022-12-26T16:58:05.632Z,0.40
2022-12-26T17:00:32.486Z,0.43
2022-12-26T17:02:58.927Z,0.52
2022-12-26T17:05:25.334Z,0.52
2022-12-26T17:07:52.213Z,0.40
2022-12-26T17:10:18.688Z,0.60
2022-12-26T17:12:44.957Z,0.55
2022-12-26T17:15:11.214Z,0.40
2022-12-26T17:17:37.617Z,0.40
2022-12-26T17:20:04.243Z,0.88
2022-12-26T17:22:30.753Z,0.60
2022-12-26T17:24:57.275Z,0.50
2022-12-26T17:27:24.296Z,0.73
2022-12-26T17:29:50.888Z,0.40
2022-12-26T17:32:17.132Z,0.70
2022-12-26T17:34:43.498Z,0.43
2022-12-26T17:37:19.113Z,0.50
2022-12-26T17:39:46.134Z,0.50
2022-12-26T17:42:12.512Z,0.50
2022-12-26T17:44:38.941Z,0.38
2022-12-26T17:47:05.804Z,0.40
2022-12-26T17:49:32.212Z,0.50
2022-12-26T17:52:01.883Z,0.40
2022-12-26T17:54:28.742Z,0.60
2022-12-26T17:56:55.124Z,0.30
2022-12-26T17:59:21.469Z,0.40
2022-12-26T18:01:48.029Z,0.90
2022-12-26T18:04:14.310Z,0.90
2022-12-26T18:06:40.637Z,0.47
2022-12-26T18:09:07.059Z,0.80
2022-12-26T18:11:33.873Z,0.82
2022-12-26T18:14:00.403Z,0.50
2022-12-26T18:16:26.987Z,0.50
2022-12-26T18:18:53.430Z,0.52
2022-12-26T18:21:19.936Z,0.60
2022-12-26T18:23:46.121Z,0.47
2022-12-26T18:26:12.702Z,0.30
2022-12-26T18:28:38.963Z,0.50
2022-12-26T18:31:05.210Z,0.45
2022-12-26T18:33:31.605Z,0.30
2022-12-26T18:36:00.755Z,0.70
2022-12-26T18:38:29.301Z,0.80
2022-12-26T18:40:55.484Z,0.30
2022-12-26T18:43:21.753Z,0.40
2022-12-26T18:45:48.333Z,0.30
2022-12-26T18:48:14.688Z,0.30
2022-12-26T18:50:42.371Z,0.32
2022-12-26T18:53:08.756Z,0.40
2022-12-26T18:55:35.447Z,0.30
2022-12-26T18:58:01.969Z,0.43
2022-12-26T19:00:28.343Z,0.50
2022-12-26T19:02:54.804Z,0.32
2022-12-26T19:05:21.009Z,0.63
2022-12-26T19:07:47.411Z,0.70
2022-12-26T19:10:13.977Z,0.50
2022-12-26T19:12:40.423Z,0.30
2022-12-26T19:15:06.699Z,0.22
2022-12-26T19:17:32.928Z,0.30
2022-12-26T19:19:59.391Z,0.22
2022-12-26T19:22:25.858Z,0.32
2022-12-26T19:24:53.306Z,0.35
2022-12-26T19:27:19.661Z,0.32
2022-12-26T19:29:46.133Z,0.30
2022-12-26T19:32:12.444Z,0.20
2022-12-26T19:34:38.743Z,0.20
2022-12-26T19:37:06.641Z,0.20
2022-12-26T19:39:33.633Z,0.25
2022-12-26T19:42:00.141Z,0.30
2022-12-26T19:44:27.070Z,0.40
2022-12-26T19:47:12.078Z,0.20
2022-12-26T19:49:39.666Z,0.20
2022-12-26T19:52:06.209Z,0.80
2022-12-26T19:54:32.682Z,0.30
2022-12-26T19:56:58.883Z,0.43
2022-12-26T19:59:25.436Z,0.30
2022-12-26T20:01:51.929Z,0.38
2022-12-26T20:04:18.497Z,0.10
2022-12-26T20:06:45.015Z,0.20
2022-12-26T20:09:11.535Z,0.30
2022-12-26T20:11:38.152Z,0.28
2022-12-26T20:14:04.438Z,0.20
2022-12-26T20:17:04.413Z,0.17
2022-12-26T20:19:17.896Z,0.28
2022-12-26T20:21:44.382Z,0.20
2022-12-26T20:24:10.775Z,0.40
2022-12-26T20:26:37.102Z,0.30
2022-12-26T20:29:03.256Z,0.32
2022-12-26T20:31:29.657Z,0.60
2022-12-26T20:33:56.264Z,0.35
2022-12-26T20:36:22.582Z,0.15
2022-12-26T20:38:49.037Z,0.43
2022-12-26T20:41:15.189Z,0.20
2022-12-26T20:43:41.315Z,0.30
2022-12-26T20:46:07.674Z,0.20
2022-12-26T20:48:33.875Z,0.30
2022-12-26T20:51:00.109Z,0.15
2022-12-26T20:53:26.236Z,0.25
2022-12-26T20:55:52.364Z,0.25
2022-12-26T20:58:25.052Z,0.20
2022-12-26T21:00:51.512Z,0.17
2022-12-26T21:03:17.706Z,0.20
2022-12-26T21:05:43.841Z,0.30
2022-12-26T21:08:09.967Z,0.20
2022-12-26T21:10:36.076Z,0.20
2022-12-26T21:13:02.223Z,0.20
2022-12-26T21:15:28.378Z,0.40
2022-12-26T21:17:54.506Z,0.20
2022-12-26T21:20:20.628Z,0.25
2022-12-26T21:22:46.812Z,0.30
2022-12-26T21:25:12.921Z,0.17
2022-12-26T21:27:42.766Z,0.38
2022-12-26T21:30:09.132Z,0.20
2022-12-26T21:32:35.315Z,0.20
2022-12-26T21:35:01.478Z,0.20
2022-12-26T21:37:27.613Z,0.10
2022-12-26T21:39:53.757Z,0.20
2022-12-26T21:42:19.894Z,0.15
2022-12-26T21:44:46.009Z,0.20
2022-12-26T21:47:12.126Z,0.20
2022-12-26T21:49:38.255Z,0.15
2022-12-26T21:52:04.383Z,0.20
2022-12-26T21:54:30.515Z,0.20
2022-12-26T21:56:56.666Z,0.30
2022-12-26T21:59:22.857Z,0.30
2022-12-26T22:01:49.073Z,0.20
2022-12-26T22:04:15.263Z,0.20
2022-12-26T22:06:41.419Z,0.30
2022-12-26T22:09:07.565Z,0.30
2022-12-26T22:11:33.749Z,0.30
2022-12-26T22:13:59.897Z,0.20
2022-12-26T22:16:26.024Z,0.20
2022-12-26T22:18:52.140Z,0.20
2022-12-26T22:21:18.260Z,0.20
2022-12-26T22:23:44.384Z,0.10
2022-12-26T22:26:10.532Z,0.20
2022-12-26T22:28:36.674Z,0.10
2022-12-26T22:31:03.251Z,0.20
2022-12-26T22:33:29.457Z,0.20
2022-12-26T22:35:55.623Z,0.20
2022-12-26T22:38:21.737Z,0.15
2022-12-26T22:40:47.940Z,0.17
2022-12-26T22:43:14.187Z,0.20
2022-12-26T22:45:40.295Z,0.20
2022-12-26T22:48:06.430Z,0.20
2022-12-26T22:50:32.570Z,0.30
2022-12-26T22:52:58.703Z,0.20
2022-12-26T22:55:24.840Z,0.20
2022-12-26T22:57:52.786Z,0.30
2022-12-26T23:00:19.495Z,0.20
2022-12-26T23:02:45.687Z,0.10
2022-12-26T23:05:11.877Z,0.20
2022-12-26T23:07:38.000Z,0.20
2022-12-26T23:10:04.147Z,0.20
2022-12-26T23:12:30.288Z,0.28
2022-12-26T23:14:56.439Z,0.30
2022-12-26T23:17:22.551Z,0.20
2022-12-26T23:19:48.664Z,0.30
2022-12-26T23:22:14.776Z,0.20
2022-12-26T23:24:40.910Z,0.28
2022-12-26T23:27:11.759Z,0.20
2022-12-26T23:29:38.182Z,0.40
2022-12-26T23:32:04.308Z,0.15
2022-12-26T23:34:30.491Z,0.20
2022-12-26T23:36:56.604Z,0.28
2022-12-26T23:39:22.716Z,0.20
2022-12-26T23:41:48.872Z,0.20
2022-12-26T23:44:14.989Z,0.30
2022-12-26T23:46:41.136Z,0.10
2022-12-26T23:49:07.297Z,0.15
2022-12-26T23:51:33.415Z,0.20
2022-12-26T23:53:59.550Z,0.20
2022-12-26T23:56:25.673Z,0.30
2022-12-26T23:58:51.835Z,0.20
